Time;durP1;ratioP1;P1;durP2;ratioP2;P2;SDS_P1;SDS_P2;PMS_P1;PMS_P2;Temp;Humidity;BMP_temperature;BMP_pressure;BME280_temperature;BME280_humidity;BME280_pressure;Samples;Min_cycle;Max_cycle;Signal;HPM_P1;HPM_P2
2022/12/15 00:39:01;;;;;;;39.35;17.58;;;;;;;;;;4954302;28;93532;-83
2022/12/15 00:41:29;;;;;;;45.83;17.77;;;;;;;;;;4954367;28;94406;-83
2022/12/15 00:43:56;;;;;;;46.42;18.38;;;;;;;;;;4972614;28;94541;-83
2022/12/15 00:50:50;;;;;;;80.15;26.30;;;;;;;;;;4958077;28;93432;-83
2022/12/15 01:22:14;;;;;;;41.45;16.70;;;;;;;;;;4955702;28;94875;-83
2022/12/15 01:24:41;;;;;;;36.13;16.90;;;;;;;;;;4952292;28;99717;-83
2022/12/15 01:27:07;;;;;;;39.90;17.92;;;;;;;;;;4956765;28;94842;-83
2022/12/15 01:29:34;;;;;;;33.63;16.17;;;;;;;;;;4953026;28;93269;-83
2022/12/15 01:32:00;;;;;;;43.58;17.80;;;;;;;;;;4948674;28;94710;-84
2022/12/15 01:34:28;;;;;;;31.25;15.82;;;;;;;;;;4970911;28;92485;-83
2022/12/15 01:36:55;;;;;;;31.55;15.50;;;;;;;;;;4953750;28;93817;-83
2022/12/15 01:39:21;;;;;;;29.58;15.25;;;;;;;;;;4957557;28;92546;-83
2022/12/15 01:41:47;;;;;;;41.28;17.73;;;;;;;;;;4955441;28;92507;-82
2022/12/15 01:44:19;;;;;;;50.92;18.45;;;;;;;;;;4955675;28;93284;-83
2022/12/15 01:46:46;;;;;;;34.50;16.42;;;;;;;;;;4955177;28;97749;-83
2022/12/15 01:49:13;;;;;;;35.50;14.68;;;;;;;;;;4955339;28;93757;-83
2022/12/15 01:51:41;;;;;;;38.75;15.02;;;;;;;;;;4958364;28;96955;-83
2022/12/15 01:54:16;;;;;;;34.55;16.23;;;;;;;;;;4971196;28;92479;-83
2022/12/15 01:56:44;;;;;;;31.10;14.98;;;;;;;;;;4970710;28;94287;-84
2022/12/15 01:59:14;;;;;;;38.22;15.77;;;;;;;;;;4971421;28;94468;-84
2022/12/15 02:01:40;;;;;;;32.85;15.40;;;;;;;;;;4953361;28;92463;-83
2022/12/15 02:04:07;;;;;;;31.85;14.00;;;;;;;;;;4957276;28;93757;-83
2022/12/15 02:06:34;;;;;;;29.52;14.55;;;;;;;;;;4938019;28;96316;-83
2022/12/15 02:09:02;;;;;;;31.52;14.27;;;;;;;;;;4956041;28;92444;-83
2022/12/15 02:11:34;;;;;;;28.98;14.90;;;;;;;;;;4954219;28;95292;-84
2022/12/15 02:14:02;;;;;;;28.50;14.93;;;;;;;;;;4957935;28;93403;-84
2022/12/15 02:16:37;;;;;;;28.77;14.07;;;;;;;;;;4958588;28;93854;-83
2022/12/15 02:19:13;;;;;;;25.63;13.63;;;;;;;;;;4955278;28;96263;-83
2022/12/15 02:21:47;;;;;;;30.17;14.65;;;;;;;;;;4970996;28;92432;-84
2022/12/15 02:24:13;;;;;;;28.35;14.15;;;;;;;;;;4955285;28;94010;-84
2022/12/15 02:26:39;;;;;;;31.23;15.30;;;;;;;;;;4956113;28;94707;-83
2022/12/15 02:29:16;;;;;;;25.02;13.40;;;;;;;;;;4972116;28;91645;-83
2022/12/15 02:31:48;;;;;;;28.92;13.98;;;;;;;;;;4956818;28;96534;-83
2022/12/15 02:34:28;;;;;;;25.77;14.15;;;;;;;;;;4955639;28;95611;-83
2022/12/15 02:36:59;;;;;;;32.63;14.80;;;;;;;;;;4959384;28;94855;-83
2022/12/15 02:39:25;;;;;;;28.20;14.23;;;;;;;;;;4952256;28;97464;-83
2022/12/15 02:41:54;;;;;;;37.58;16.83;;;;;;;;;;4954775;28;93905;-83
2022/12/15 02:44:21;;;;;;;33.97;16.55;;;;;;;;;;4951887;28;93821;-82
2022/12/15 02:46:58;;;;;;;29.58;15.25;;;;;;;;;;4958086;28;93429;-83
2022/12/15 02:49:30;;;;;;;37.90;19.13;;;;;;;;;;4971186;28;93787;-83
2022/12/15 02:52:07;;;;;;;45.40;18.77;;;;;;;;;;4955484;28;95751;-83
2022/12/15 02:54:40;;;;;;;31.63;15.05;;;;;;;;;;4937382;28;93802;-82
2022/12/15 02:57:10;;;;;;;39.30;15.30;;;;;;;;;;4961126;28;92437;-83
2022/12/15 03:00:11;;;;;;;27.30;15.13;;;;;;;;;;4956772;28;95467;-83
2022/12/15 03:02:40;;;;;;;34.47;14.55;;;;;;;;;;4908667;28;94967;-83
2022/12/15 03:05:08;;;;;;;28.90;14.82;;;;;;;;;;4898532;28;96555;-83
2022/12/15 03:07:35;;;;;;;31.88;15.07;;;;;;;;;;4913647;28;96806;-83
2022/12/15 03:10:03;;;;;;;28.58;14.82;;;;;;;;;;4910989;28;92813;-83
2022/12/15 03:12:29;;;;;;;29.50;15.02;;;;;;;;;;4913998;28;94481;-83
2022/12/15 03:14:56;;;;;;;36.03;14.48;;;;;;;;;;4915178;28;93977;-83
2022/12/15 03:17:23;;;;;;;31.00;15.18;;;;;;;;;;4897039;28;92668;-83
2022/12/15 03:19:50;;;;;;;31.30;14.98;;;;;;;;;;4898474;28;96461;-83
2022/12/15 03:22:16;;;;;;;28.20;14.90;;;;;;;;;;4917494;28;95705;-83
2022/12/15 03:24:42;;;;;;;30.30;16.38;;;;;;;;;;4897247;28;97641;-83
2022/12/15 03:27:09;;;;;;;31.58;16.75;;;;;;;;;;4911757;28;98725;-82
2022/12/15 03:29:35;;;;;;;26.73;14.35;;;;;;;;;;4897920;28;92599;-83
2022/12/15 03:32:01;;;;;;;27.77;13.73;;;;;;;;;;4913194;28;97401;-83
2022/12/15 03:34:29;;;;;;;29.27;14.27;;;;;;;;;;4914199;28;94126;-83
2022/12/15 03:36:55;;;;;;;34.65;14.55;;;;;;;;;;4937618;28;94458;-83
2022/12/15 03:39:21;;;;;;;31.98;15.35;;;;;;;;;;4954058;28;94573;-83
2022/12/15 03:41:48;;;;;;;35.25;14.82;;;;;;;;;;4954122;28;94579;-83
2022/12/15 03:44:14;;;;;;;28.13;14.93;;;;;;;;;;4958333;28;91646;-83
2022/12/15 03:46:41;;;;;;;27.40;13.63;;;;;;;;;;4963377;28;94452;-83
2022/12/15 03:49:09;;;;;;;24.90;13.85;;;;;;;;;;4953766;28;94325;-82
2022/12/15 03:51:36;;;;;;;24.52;13.52;;;;;;;;;;4968141;28;94780;-83
2022/12/15 03:54:02;;;;;;;29.00;15.27;;;;;;;;;;4953542;28;96144;-83
2022/12/15 03:56:28;;;;;;;34.60;15.20;;;;;;;;;;4969763;28;92462;-83
2022/12/15 03:58:55;;;;;;;29.38;15.70;;;;;;;;;;4968652;28;93920;-83
2022/12/15 04:01:32;;;;;;;30.92;15.68;;;;;;;;;;4953659;28;94473;-83
2022/12/15 04:03:59;;;;;;;30.00;15.30;;;;;;;;;;4958561;28;92446;-83
2022/12/15 04:06:27;;;;;;;29.35;15.13;;;;;;;;;;4952623;28;97566;-83
2022/12/15 04:08:55;;;;;;;24.40;15.38;;;;;;;;;;4954606;28;91705;-83
2022/12/15 04:11:21;;;;;;;31.98;15.38;;;;;;;;;;4953128;28;96656;-83
2022/12/15 04:13:47;;;;;;;29.10;15.48;;;;;;;;;;4953950;28;98043;-83
2022/12/15 04:16:14;;;;;;;33.40;15.15;;;;;;;;;;4950837;28;94777;-84
2022/12/15 04:18:45;;;;;;;33.42;16.60;;;;;;;;;;4952703;28;98859;-83
2022/12/15 04:21:12;;;;;;;32.28;15.57;;;;;;;;;;4940844;28;94437;-83
2022/12/15 04:23:38;;;;;;;23.27;13.80;;;;;;;;;;4961872;28;92626;-83
2022/12/15 05:32:21;;;;;;;27.40;14.65;;;;;;;;;;4954873;28;95291;-83
2022/12/15 05:34:47;;;;;;;29.55;15.32;;;;;;;;;;4955304;28;97466;-83
2022/12/15 05:37:14;;;;;;;33.55;14.27;;;;;;;;;;4951861;28;94781;-83
2022/12/15 05:39:41;;;;;;;30.67;14.98;;;;;;;;;;4943621;28;97041;-83
2022/12/15 05:42:07;;;;;;;25.38;13.90;;;;;;;;;;4950715;28;92502;-84
2022/12/15 05:44:34;;;;;;;31.23;15.40;;;;;;;;;;4944202;28;97084;-83
2022/12/15 05:47:00;;;;;;;27.65;15.52;;;;;;;;;;4955826;28;94298;-83
2022/12/15 05:49:26;;;;;;;32.90;15.70;;;;;;;;;;4956601;28;92555;-83
2022/12/15 05:51:53;;;;;;;29.13;16.05;;;;;;;;;;4956590;28;93809;-84
2022/12/15 05:54:19;;;;;;;27.67;15.93;;;;;;;;;;4957351;28;93717;-84
2022/12/15 05:56:46;;;;;;;32.78;15.88;;;;;;;;;;4956315;28;92413;-82
2022/12/15 05:59:16;;;;;;;27.90;15.87;;;;;;;;;;4946803;28;92663;-83
2022/12/15 06:01:42;;;;;;;33.10;14.15;;;;;;;;;;4970451;28;94836;-83
2022/12/15 06:04:11;;;;;;;31.33;15.70;;;;;;;;;;4956161;28;97314;-83
2022/12/15 06:06:39;;;;;;;28.35;15.25;;;;;;;;;;4956160;28;97575;-83
2022/12/15 06:09:06;;;;;;;30.45;15.40;;;;;;;;;;4956876;28;93324;-83
2022/12/15 06:11:32;;;;;;;27.58;14.98;;;;;;;;;;4955405;28;95554;-83
2022/12/15 06:14:01;;;;;;;28.80;15.02;;;;;;;;;;4953660;28;94157;-84
2022/12/15 06:16:27;;;;;;;29.25;14.98;;;;;;;;;;4970566;28;92608;-83
2022/12/15 06:18:55;;;;;;;28.98;14.68;;;;;;;;;;4955915;28;95322;-83
2022/12/15 06:21:24;;;;;;;32.15;15.15;;;;;;;;;;4942586;28;94012;-83
2022/12/15 06:23:51;;;;;;;25.83;14.25;;;;;;;;;;4940283;28;96660;-83
2022/12/15 06:26:25;;;;;;;28.30;16.10;;;;;;;;;;4950444;28;100376;-83
2022/12/15 06:28:53;;;;;;;28.30;14.48;;;;;;;;;;4955800;28;94513;-84
2022/12/15 06:31:24;;;;;;;28.85;15.13;;;;;;;;;;4967597;28;94671;-83
2022/12/15 06:33:51;;;;;;;26.05;14.80;;;;;;;;;;4966000;28;94083;-81
2022/12/15 06:36:27;;;;;;;31.73;16.00;;;;;;;;;;4956321;28;92586;-83
2022/12/15 06:38:58;;;;;;;32.38;15.98;;;;;;;;;;4955148;28;94269;-82
2022/12/15 06:41:25;;;;;;;33.28;15.15;;;;;;;;;;4956589;28;94633;-83
2022/12/15 06:43:52;;;;;;;29.00;16.08;;;;;;;;;;4957822;28;91832;-82
2022/12/15 06:46:19;;;;;;;33.53;16.30;;;;;;;;;;4956151;28;96412;-82
2022/12/15 06:48:46;;;;;;;29.90;15.18;;;;;;;;;;4954617;28;92594;-83
2022/12/15 06:51:13;;;;;;;30.83;17.05;;;;;;;;;;4953759;28;95379;-82
2022/12/15 06:53:52;;;;;;;34.40;18.10;;;;;;;;;;4954525;28;97069;-82
2022/12/15 06:56:23;;;;;;;29.52;16.30;;;;;;;;;;4939782;28;92567;-81
2022/12/15 06:58:59;;;;;;;32.55;16.55;;;;;;;;;;4954189;28;93057;-82
2022/12/15 07:01:25;;;;;;;30.85;16.48;;;;;;;;;;4970327;28;95272;-81
2022/12/15 07:03:52;;;;;;;40.05;17.30;;;;;;;;;;4955994;28;92848;-83
2022/12/15 07:06:20;;;;;;;29.80;16.25;;;;;;;;;;4956962;28;95157;-83
2022/12/15 07:08:55;;;;;;;33.53;17.17;;;;;;;;;;4952028;28;94140;-83
2022/12/15 07:11:22;;;;;;;28.25;15.48;;;;;;;;;;4940384;28;94320;-83
2022/12/15 07:13:49;;;;;;;41.40;16.38;;;;;;;;;;4954206;28;97475;-86
2022/12/15 07:16:15;;;;;;;33.17;16.23;;;;;;;;;;4952863;28;94925;-87
2022/12/15 07:18:42;;;;;;;31.80;17.25;;;;;;;;;;4954613;28;95031;-84
2022/12/15 07:21:09;;;;;;;34.08;17.98;;;;;;;;;;4953526;28;97249;-83
2022/12/15 07:23:35;;;;;;;35.17;18.63;;;;;;;;;;4954342;28;92613;-85
2022/12/15 07:26:20;;;;;;;34.72;17.33;;;;;;;;;;4954719;28;96319;-85
2022/12/15 07:28:47;;;;;;;34.33;17.30;;;;;;;;;;4961522;28;94374;-83
2022/12/15 07:31:14;;;;;;;39.05;18.00;;;;;;;;;;4955220;28;94192;-85
2022/12/15 07:33:41;;;;;;;30.80;16.00;;;;;;;;;;4954224;28;96922;-84
2022/12/15 07:36:07;;;;;;;30.00;15.68;;;;;;;;;;4948666;28;94126;-89
2022/12/15 07:38:34;;;;;;;35.05;17.15;;;;;;;;;;4951260;28;97472;-86
2022/12/15 07:41:01;;;;;;;33.15;17.65;;;;;;;;;;4950953;28;97005;-82
2022/12/15 07:43:29;;;;;;;35.85;18.23;;;;;;;;;;4954111;28;93490;-82
2022/12/15 07:45:57;;;;;;;43.80;22.38;;;;;;;;;;4937517;28;95758;-83
2022/12/15 07:48:26;;;;;;;52.65;24.00;;;;;;;;;;4952699;28;95624;-83
2022/12/15 07:50:56;;;;;;;46.67;23.95;;;;;;;;;;4957529;28;92377;-84
2022/12/15 07:53:33;;;;;;;44.25;23.17;;;;;;;;;;4949906;28;93272;-84
2022/12/15 07:56:00;;;;;;;42.03;22.38;;;;;;;;;;4943916;28;92561;-83
2022/12/15 07:58:36;;;;;;;41.70;22.05;;;;;;;;;;4952352;28;97669;-83
2022/12/15 08:01:07;;;;;;;50.03;21.98;;;;;;;;;;4948163;28;94208;-82
2022/12/15 08:03:33;;;;;;;47.30;22.17;;;;;;;;;;4944945;28;92725;-83
2022/12/15 08:06:10;;;;;;;56.47;24.58;;;;;;;;;;4950847;28;94908;-83
2022/12/15 08:08:37;;;;;;;41.00;20.20;;;;;;;;;;4948802;28;94024;-83
2022/12/15 08:11:04;;;;;;;47.67;20.85;;;;;;;;;;4957234;28;94305;-83
2022/12/15 08:13:32;;;;;;;44.20;20.95;;;;;;;;;;4953650;28;97419;-85
2022/12/15 08:16:19;;;;;;;48.70;20.58;;;;;;;;;;4954922;28;93206;-82
2022/12/15 08:18:46;;;;;;;41.30;19.20;;;;;;;;;;4953276;28;93906;-84
2022/12/15 08:21:13;;;;;;;45.45;21.75;;;;;;;;;;4949103;28;94824;-82
2022/12/15 08:23:39;;;;;;;43.20;19.33;;;;;;;;;;4951024;28;91809;-84
2022/12/15 08:26:14;;;;;;;36.03;18.88;;;;;;;;;;4950114;28;92550;-84
2022/12/15 08:28:42;;;;;;;40.58;19.92;;;;;;;;;;4954436;28;96695;-83
2022/12/15 08:31:11;;;;;;;39.58;21.40;;;;;;;;;;4964686;28;94943;-82
2022/12/15 08:33:37;;;;;;;49.35;23.15;;;;;;;;;;4954097;28;97752;-82
2022/12/15 08:36:06;;;;;;;51.63;23.40;;;;;;;;;;4953149;28;93702;-82
2022/12/15 08:38:33;;;;;;;55.58;25.10;;;;;;;;;;4952652;28;94349;-82
2022/12/15 08:41:08;;;;;;;54.13;25.13;;;;;;;;;;4969237;28;94442;-82
2022/12/15 08:43:35;;;;;;;46.25;23.42;;;;;;;;;;4952516;28;92948;-82
2022/12/15 08:46:05;;;;;;;44.65;21.80;;;;;;;;;;4962745;28;97355;-83
2022/12/15 08:48:31;;;;;;;38.92;19.83;;;;;;;;;;4989866;28;93203;-83
2022/12/15 08:50:58;;;;;;;41.60;20.35;;;;;;;;;;4956874;28;92535;-82
2022/12/15 08:53:26;;;;;;;41.08;20.15;;;;;;;;;;4952101;28;94380;-86
2022/12/15 08:56:05;;;;;;;42.97;21.73;;;;;;;;;;4954509;28;96361;-87
2022/12/15 08:58:31;;;;;;;43.42;20.73;;;;;;;;;;4952981;28;99428;-88
2022/12/15 09:01:02;;;;;;;44.42;20.70;;;;;;;;;;4952178;28;94499;-88
2022/12/15 09:03:29;;;;;;;43.92;20.48;;;;;;;;;;4951895;28;92489;-85
2022/12/15 09:06:00;;;;;;;40.47;21.48;;;;;;;;;;4954576;28;94361;-86
2022/12/15 09:08:29;;;;;;;51.92;23.15;;;;;;;;;;4955931;28;94444;-87
2022/12/15 09:10:59;;;;;;;44.92;23.10;;;;;;;;;;4954131;28;93552;-89
2022/12/15 09:13:26;;;;;;;70.10;24.55;;;;;;;;;;4968075;28;94217;-84
2022/12/15 09:15:56;;;;;;;44.40;21.90;;;;;;;;;;4955987;28;94396;-83
2022/12/15 09:18:35;;;;;;;44.35;22.30;;;;;;;;;;4959493;28;92409;-83
2022/12/15 09:21:02;;;;;;;41.13;21.08;;;;;;;;;;4953552;28;95216;-82
2022/12/15 09:23:30;;;;;;;39.55;20.63;;;;;;;;;;4956081;28;93148;-81
2022/12/15 09:26:00;;;;;;;41.97;19.77;;;;;;;;;;4956112;28;94579;-85
2022/12/15 09:28:27;;;;;;;40.28;20.27;;;;;;;;;;4951590;28;94599;-84
2022/12/15 09:31:00;;;;;;;36.22;20.38;;;;;;;;;;4955229;28;94165;-84
2022/12/15 09:33:26;;;;;;;41.58;21.65;;;;;;;;;;4955975;28;93677;-86
2022/12/15 09:35:53;;;;;;;43.08;19.20;;;;;;;;;;4958970;28;97238;-89
2022/12/15 09:38:20;;;;;;;40.65;21.35;;;;;;;;;;4971239;28;91730;-83
2022/12/15 09:40:46;;;;;;;42.80;21.10;;;;;;;;;;4967611;28;93562;-82
2022/12/15 09:43:21;;;;;;;39.45;21.45;;;;;;;;;;4953018;28;94571;-84
2022/12/15 09:46:15;;;;;;;36.85;21.00;;;;;;;;;;4947630;28;95954;-81
2022/12/15 09:48:43;;;;;;;38.25;20.30;;;;;;;;;;4956895;28;94535;-83
2022/12/15 09:51:13;;;;;;;34.33;19.48;;;;;;;;;;4955916;28;92662;-81
2022/12/15 09:53:39;;;;;;;42.92;21.15;;;;;;;;;;4966479;28;94499;-83
2022/12/15 09:56:31;;;;;;;35.00;18.95;;;;;;;;;;4936202;28;94512;-84
2022/12/15 09:59:16;;;;;;;39.10;19.10;;;;;;;;;;4937791;28;92371;-83
2022/12/15 10:01:47;;;;;;;37.38;19.13;;;;;;;;;;4942668;28;92959;-84
2022/12/15 10:04:13;;;;;;;47.97;19.98;;;;;;;;;;4960526;28;93296;-84
2022/12/15 10:06:48;;;;;;;37.08;19.25;;;;;;;;;;4956213;28;92723;-84
2022/12/15 10:09:17;;;;;;;34.78;19.55;;;;;;;;;;4955511;28;94743;-84
2022/12/15 10:11:52;;;;;;;35.00;19.33;;;;;;;;;;4954060;28;94943;-84
2022/12/15 10:14:22;;;;;;;40.88;19.15;;;;;;;;;;4956988;28;98695;-84
2022/12/15 10:16:57;;;;;;;40.80;20.65;;;;;;;;;;4956107;28;96506;-83
2022/12/15 10:19:39;;;;;;;32.88;19.00;;;;;;;;;;4952111;28;94220;-84
2022/12/15 10:22:09;;;;;;;36.80;19.17;;;;;;;;;;4946222;28;94472;-83
2022/12/15 10:24:35;;;;;;;38.58;18.50;;;;;;;;;;4957925;28;94554;-84
2022/12/15 10:27:25;;;;;;;28.40;16.25;;;;;;;;;;4953861;28;96797;-83
2022/12/15 10:30:03;;;;;;;30.63;16.23;;;;;;;;;;4956847;28;92067;-83
2022/12/15 10:32:41;;;;;;;27.05;15.63;;;;;;;;;;4954084;28;94531;-83
2022/12/15 10:35:20;;;;;;;32.58;16.33;;;;;;;;;;4953947;28;94448;-83
2022/12/15 10:37:46;;;;;;;34.50;15.70;;;;;;;;;;4948714;28;97233;-83
2022/12/15 10:40:24;;;;;;;26.33;15.68;;;;;;;;;;4954524;28;92668;-84
2022/12/15 10:42:51;;;;;;;25.50;15.23;;;;;;;;;;4950751;28;97763;-83
2022/12/15 10:45:34;;;;;;;27.95;15.90;;;;;;;;;;4955032;28;93280;-83
2022/12/15 10:48:02;;;;;;;25.67;15.18;;;;;;;;;;4959122;28;92435;-83
2022/12/15 10:50:29;;;;;;;34.47;15.35;;;;;;;;;;4952614;28;97880;-84
2022/12/15 10:52:55;;;;;;;30.77;15.95;;;;;;;;;;4953420;28;92461;-84
2022/12/15 10:55:38;;;;;;;25.13;13.43;;;;;;;;;;4955133;28;94320;-85
2022/12/15 10:58:15;;;;;;;27.45;14.05;;;;;;;;;;4953866;28;94802;-83
2022/12/15 11:00:41;;;;;;;24.15;14.93;;;;;;;;;;4954736;28;92422;-83
2022/12/15 11:03:25;;;;;;;27.02;14.13;;;;;;;;;;4952106;28;96673;-83
2022/12/15 11:05:53;;;;;;;32.67;15.13;;;;;;;;;;4953091;28;96488;-83
2022/12/15 11:08:21;;;;;;;28.10;15.55;;;;;;;;;;4954666;28;93859;-83
2022/12/15 11:13:38;;;;;;;25.35;15.23;;;;;;;;;;4952415;28;92473;-83
2022/12/15 11:16:15;;;;;;;33.28;16.23;;;;;;;;;;4954868;28;97226;-83
2022/12/15 11:18:50;;;;;;;26.95;16.02;;;;;;;;;;4953070;28;95995;-84
2022/12/15 11:21:16;;;;;;;25.52;15.70;;;;;;;;;;4952965;28;91888;-84
2022/12/15 11:24:07;;;;;;;31.23;16.70;;;;;;;;;;4952503;28;95509;-84
2022/12/15 11:26:54;;;;;;;34.40;16.10;;;;;;;;;;4953381;28;97702;-83
2022/12/15 11:29:35;;;;;;;24.30;14.30;;;;;;;;;;4952396;28;94952;-82
2022/12/15 11:32:01;;;;;;;30.13;14.90;;;;;;;;;;4954359;28;96291;-82
2022/12/15 11:34:35;;;;;;;30.42;13.95;;;;;;;;;;4957995;28;95632;-83
2022/12/15 11:37:09;;;;;;;24.08;13.73;;;;;;;;;;4969217;28;97860;-84
2022/12/15 11:39:41;;;;;;;22.13;14.07;;;;;;;;;;4952080;28;97305;-83
2022/12/15 11:42:18;;;;;;;25.83;14.65;;;;;;;;;;4952456;28;92567;-83
2022/12/15 11:44:50;;;;;;;26.75;15.05;;;;;;;;;;4955270;28;97954;-84
2022/12/15 11:47:42;;;;;;;29.30;14.65;;;;;;;;;;4954861;28;95727;-84
2022/12/15 11:50:14;;;;;;;24.40;14.18;;;;;;;;;;4940131;28;92541;-84
2022/12/15 11:52:47;;;;;;;26.92;15.82;;;;;;;;;;4952490;28;92765;-83
2022/12/15 11:55:21;;;;;;;25.05;15.00;;;;;;;;;;4949880;28;99497;-83
2022/12/15 11:58:15;;;;;;;23.02;14.63;;;;;;;;;;4951867;28;93664;-83
2022/12/15 12:00:45;;;;;;;28.25;14.00;;;;;;;;;;4935482;28;94473;-83
2022/12/15 12:03:14;;;;;;;23.48;14.40;;;;;;;;;;4940470;28;92457;-83
2022/12/15 12:05:40;;;;;;;23.98;15.13;;;;;;;;;;4952256;28;93872;-84
2022/12/15 12:08:13;;;;;;;26.85;17.38;;;;;;;;;;4912705;28;94417;-83
2022/12/15 12:10:53;;;;;;;26.13;16.83;;;;;;;;;;4928053;28;92593;-83
2022/12/15 12:13:38;;;;;;;36.38;17.77;;;;;;;;;;4928904;28;94361;-84
2022/12/15 12:16:24;;;;;;;27.92;17.10;;;;;;;;;;4936427;28;97712;-83
2022/12/15 12:19:05;;;;;;;31.90;18.83;;;;;;;;;;4906838;28;93229;-83
2022/12/15 12:21:31;;;;;;;;;;;;;;;;;;4917378;28;94905;-82
2022/12/15 12:24:00;;;;;;;26.30;16.75;;;;;;;;;;4915933;28;121273;-83
2022/12/15 12:26:30;;;;;;;26.73;16.75;;;;;;;;;;4930040;28;93718;-83
2022/12/15 12:29:32;;;;;;;25.63;17.25;;;;;;;;;;4930413;28;94719;-83
2022/12/15 12:32:01;;;;;;;32.92;18.35;;;;;;;;;;4925891;28;94500;-83
2022/12/15 12:34:33;;;;;;;29.20;18.63;;;;;;;;;;4916460;28;94061;-82
2022/12/15 12:37:14;;;;;;;44.85;22.85;;;;;;;;;;4918832;28;94883;-83
2022/12/15 12:39:41;;;;;;;40.17;22.27;;;;;;;;;;4928704;28;91892;-84
2022/12/15 12:42:16;;;;;;;41.00;20.70;;;;;;;;;;4925739;28;92735;-83
2022/12/15 12:44:42;;;;;;;34.78;18.70;;;;;;;;;;4916543;28;93617;-83
2022/12/15 12:47:26;;;;;;;32.15;19.48;;;;;;;;;;4914799;28;96994;-84
2022/12/15 12:49:59;;;;;;;35.40;20.08;;;;;;;;;;4916256;28;97650;-83
2022/12/15 12:52:28;;;;;;;38.60;20.52;;;;;;;;;;4931346;28;94178;-83
2022/12/15 12:55:13;;;;;;;36.13;21.30;;;;;;;;;;4916483;28;94114;-83
2022/12/15 12:57:40;;;;;;;33.00;19.92;;;;;;;;;;4931459;28;94411;-83
2022/12/15 13:00:07;;;;;;;35.25;20.75;;;;;;;;;;4910526;28;92635;-83
2022/12/15 13:02:34;;;;;;;35.05;20.73;;;;;;;;;;4913942;28;94367;-84
2022/12/15 13:05:05;;;;;;;38.13;20.50;;;;;;;;;;4934369;28;93598;-83
2022/12/15 13:07:36;;;;;;;33.92;20.73;;;;;;;;;;4942222;28;93521;-83
2022/12/15 13:10:16;;;;;;;39.15;20.35;;;;;;;;;;4952447;28;94888;-83
2022/12/15 13:12:45;;;;;;;35.20;20.93;;;;;;;;;;4950818;28;95346;-82
2022/12/15 13:15:28;;;;;;;37.30;23.63;;;;;;;;;;4952277;28;96697;-83
2022/12/15 13:17:57;;;;;;;38.65;21.35;;;;;;;;;;4952063;28;97253;-83
2022/12/15 13:20:28;;;;;;;38.35;20.35;;;;;;;;;;4952130;28;92551;-83
2022/12/15 13:22:55;;;;;;;;;;;;;;;;;;4953014;28;93821;-83
2022/12/15 13:25:38;;;;;;;35.08;20.13;;;;;;;;;;4969960;28;123954;-82
2022/12/15 13:28:22;;;;;;;43.05;22.73;;;;;;;;;;4955382;28;93900;-82
2022/12/15 13:31:07;;;;;;;42.90;21.80;;;;;;;;;;4953126;28;93399;-84
2022/12/15 13:33:43;;;;;;;39.03;21.92;;;;;;;;;;4951508;28;93156;-82
2022/12/15 13:36:10;;;;;;;41.50;21.88;;;;;;;;;;4953521;28;96660;-85
2022/12/15 13:38:51;;;;;;;39.33;21.33;;;;;;;;;;4949035;28;96905;-84
2022/12/15 13:41:21;;;;;;;33.08;20.52;;;;;;;;;;4948233;28;92493;-84
2022/12/15 13:43:50;;;;;;;38.55;22.23;;;;;;;;;;4951919;28;97386;-84
2022/12/15 13:46:22;;;;;;;33.80;21.23;;;;;;;;;;4954718;28;97296;-83
2022/12/15 13:49:01;;;;;;;35.70;21.27;;;;;;;;;;4949985;28;93555;-84
2022/12/15 13:51:37;;;;;;;36.58;20.80;;;;;;;;;;4955380;28;97156;-84
2022/12/15 13:54:14;;;;;;;39.92;21.90;;;;;;;;;;4956118;28;94152;-84
2022/12/15 13:56:40;;;;;;;34.30;21.10;;;;;;;;;;4956766;28;96004;-83
2022/12/15 13:59:24;;;;;;;39.10;22.65;;;;;;;;;;4971260;28;93843;-83
2022/12/15 14:01:51;;;;;;;38.63;21.92;;;;;;;;;;4942065;28;93551;-83
2022/12/15 14:04:19;;;;;;;40.17;21.45;;;;;;;;;;4946547;28;94887;-83
2022/12/15 14:06:52;;;;;;;32.70;19.40;;;;;;;;;;4954316;28;97123;-84
2022/12/15 14:09:19;;;;;;;37.88;21.17;;;;;;;;;;4955743;28;92462;-83
2022/12/15 14:11:47;;;;;;;38.58;20.98;;;;;;;;;;4956446;28;93681;-83
2022/12/15 14:14:21;;;;;;;33.53;20.23;;;;;;;;;;4958050;28;93442;-85
2022/12/15 14:16:52;;;;;;;38.80;21.15;;;;;;;;;;4955408;28;94515;-85
2022/12/15 14:19:18;;;;;;;35.72;21.27;;;;;;;;;;4951980;28;94557;-84
2022/12/15 14:21:55;;;;;;;36.17;21.15;;;;;;;;;;4964755;28;92433;-85
2022/12/15 14:24:23;;;;;;;43.67;22.55;;;;;;;;;;4971304;28;92526;-85
2022/12/15 14:27:06;;;;;;;40.17;22.92;;;;;;;;;;4952930;28;94043;-84
2022/12/15 14:29:32;;;;;;;40.55;23.80;;;;;;;;;;4954389;28;94860;-84
2022/12/15 14:31:59;;;;;;;41.55;24.65;;;;;;;;;;4955299;28;100193;-83
2022/12/15 14:34:29;;;;;;;43.80;24.23;;;;;;;;;;4939373;28;94431;-85
2022/12/15 14:36:57;;;;;;;44.95;24.50;;;;;;;;;;4950198;28;92488;-86
2022/12/15 14:39:31;;;;;;;44.58;26.48;;;;;;;;;;4953434;28;97465;-84
2022/12/15 14:42:00;;;;;;;41.50;24.98;;;;;;;;;;4953791;28;94103;-85
2022/12/15 14:44:26;;;;;;;46.80;25.60;;;;;;;;;;4952896;28;93737;-86
2022/12/15 14:47:14;;;;;;;40.20;24.30;;;;;;;;;;4954995;28;93404;-85
2022/12/15 14:49:41;;;;;;;38.22;23.65;;;;;;;;;;4955616;28;92419;-84
2022/12/15 14:52:28;;;;;;;39.30;24.55;;;;;;;;;;4969859;28;94188;-84
2022/12/15 14:54:59;;;;;;;46.45;27.48;;;;;;;;;;4951708;28;96597;-84
2022/12/15 14:57:26;;;;;;;41.00;24.85;;;;;;;;;;4957413;28;92500;-84
2022/12/15 14:59:52;;;;;;;42.17;24.52;;;;;;;;;;4953783;28;94588;-84
2022/12/15 15:02:21;;;;;;;43.60;25.20;;;;;;;;;;4954022;28;92430;-86
2022/12/15 15:04:55;;;;;;;46.28;25.23;;;;;;;;;;4966781;28;94150;-84
2022/12/15 15:07:22;;;;;;;44.08;25.33;;;;;;;;;;4963885;28;94796;-84
2022/12/15 15:09:49;;;;;;;53.13;30.10;;;;;;;;;;4953100;28;93530;-85
2022/12/15 15:12:19;;;;;;;69.22;37.65;;;;;;;;;;4956553;28;93783;-84
2022/12/15 15:15:05;;;;;;;63.92;33.13;;;;;;;;;;4953371;28;97567;-85
2022/12/15 15:17:43;;;;;;;55.75;30.20;;;;;;;;;;4953793;28;92495;-85
2022/12/15 15:20:22;;;;;;;66.60;32.17;;;;;;;;;;4955908;28;94816;-85
2022/12/15 15:23:07;;;;;;;56.70;31.02;;;;;;;;;;4953188;28;94127;-85
2022/12/15 15:25:38;;;;;;;55.35;29.52;;;;;;;;;;4952895;28;94572;-84
2022/12/15 15:28:08;;;;;;;101.78;55.25;;;;;;;;;;4958036;28;97343;-84
2022/12/15 15:30:42;;;;;;;78.45;43.95;;;;;;;;;;4940486;28;92473;-84
2022/12/15 15:33:09;;;;;;;63.67;35.27;;;;;;;;;;4952502;28;94323;-84
2022/12/15 15:35:36;;;;;;;47.88;28.15;;;;;;;;;;4953378;28;97074;-84
2022/12/15 15:38:05;;;;;;;46.97;27.85;;;;;;;;;;4954869;28;91699;-84
2022/12/15 15:40:32;;;;;;;49.08;27.83;;;;;;;;;;4952232;28;92513;-83
2022/12/15 15:42:58;;;;;;;57.05;27.52;;;;;;;;;;4957168;28;93923;-85
2022/12/15 15:45:25;;;;;;;46.25;25.95;;;;;;;;;;4956516;28;97232;-84
2022/12/15 15:47:51;;;;;;;38.50;24.73;;;;;;;;;;4973370;28;93550;-84
2022/12/15 15:50:26;;;;;;;49.78;29.13;;;;;;;;;;4954954;28;92484;-85
2022/12/15 15:52:52;;;;;;;54.08;28.92;;;;;;;;;;4953446;28;96003;-84
2022/12/15 15:55:23;;;;;;;46.55;28.02;;;;;;;;;;4951385;28;96016;-84
2022/12/15 15:57:49;;;;;;;48.72;28.40;;;;;;;;;;4953396;28;93856;-84
2022/12/15 16:00:18;;;;;;;47.72;28.50;;;;;;;;;;4949098;28;96609;-82
2022/12/15 16:02:44;;;;;;;48.40;28.05;;;;;;;;;;4950636;28;95688;-85
2022/12/15 16:05:11;;;;;;;50.65;28.05;;;;;;;;;;4954183;28;92555;-84
2022/12/15 16:07:37;;;;;;;49.75;28.70;;;;;;;;;;4950660;28;93719;-85
2022/12/15 16:10:10;;;;;;;49.08;28.17;;;;;;;;;;4948539;28;94896;-84
2022/12/15 16:12:41;;;;;;;53.92;29.08;;;;;;;;;;4952967;28;99226;-84
2022/12/15 16:15:18;;;;;;;64.22;31.63;;;;;;;;;;4952108;28;95457;-85
2022/12/15 16:17:46;;;;;;;66.63;33.20;;;;;;;;;;4953306;28;92428;-84
2022/12/15 16:20:14;;;;;;;63.70;33.80;;;;;;;;;;4953046;28;93799;-84
2022/12/15 16:22:43;;;;;;;65.18;35.17;;;;;;;;;;4952333;28;96242;-85
2022/12/15 16:25:12;;;;;;;63.88;36.00;;;;;;;;;;4953903;28;92485;-85
2022/12/15 16:27:39;;;;;;;65.10;36.17;;;;;;;;;;4957196;28;93624;-84
2022/12/15 16:30:13;;;;;;;61.17;33.63;;;;;;;;;;4953768;28;92630;-84
2022/12/15 16:32:39;;;;;;;59.47;32.90;;;;;;;;;;4952884;28;94257;-84
2022/12/15 16:35:06;;;;;;;58.42;34.05;;;;;;;;;;4951491;28;98373;-86
2022/12/15 16:37:33;;;;;;;58.75;32.95;;;;;;;;;;4953555;28;92434;-82
2022/12/15 16:40:13;;;;;;;60.53;33.45;;;;;;;;;;4937872;28;96619;-82
2022/12/15 16:42:40;;;;;;;68.50;37.28;;;;;;;;;;4951735;28;96747;-83
2022/12/15 16:45:14;;;;;;;66.28;35.58;;;;;;;;;;4953732;28;94139;-85
2022/12/15 16:47:40;;;;;;;57.70;33.13;;;;;;;;;;4956097;28;92740;-87
2022/12/15 16:50:10;;;;;;;68.95;34.85;;;;;;;;;;4953816;28;92407;-86
2022/12/15 16:52:36;;;;;;;110.93;51.42;;;;;;;;;;4952942;28;94547;-86
2022/12/15 16:55:03;;;;;;;78.22;42.08;;;;;;;;;;4953281;28;93986;-87
2022/12/15 16:57:30;;;;;;;61.55;32.58;;;;;;;;;;4952828;28;92709;-85
2022/12/15 16:59:56;;;;;;;58.75;32.33;;;;;;;;;;4951851;28;94839;-86